Trufant, Michigan
Current Conditions -  °F | °C
As of 8:35 AM on Wednesday 22 Oct 2014 (Local Time) from KRQB Reporting Station
Broken Clouds Broken Clouds  
Wind Chill: 26°   Ceiling: 1600
Heat Index: 26°   Visibility: 10mi
Dew Point: 26°   Wind: 0mph
Humidity: 100%   Direction: NA
Pressure: 30.37"   Gusts: NA
Location:  43.31°N, 85.35°W
Report Text: KRQB 221235Z AUTO 00000KT 10SM BKN016 M03/M03 A3037 RMK AO2 T10311031
Loading
Personal Weather Stations






























Interactive Weather Map
Tropical Storm Tracking
New forecast layout! Learn more

10-Day Weather Forecast

Advertisements
Track Severe Weather on mobile